Time;durP1;ratioP1;P1;durP2;ratioP2;P2;SDS_P1;SDS_P2;PMS_P1;PMS_P2;Temp;Humidity;BMP_temperature;BMP_pressure;BME280_temperature;BME280_humidity;BME280_pressure;Samples;Min_cycle;Max_cycle;Signal;HPM_P1;HPM_P2
2022/04/13 00:01:29;;;;;;;7.53;1.53;;;23.60;44.20;;;;;;5040628;28;90763;-65
2022/04/13 00:03:57;;;;;;;2.40;1.67;;;23.60;44.20;;;;;;5040418;28;90248;-65
2022/04/13 00:06:25;;;;;;;1.70;1.33;;;23.60;44.90;;;;;;5040469;28;88708;-64
2022/04/13 00:08:55;;;;;;;1.20;1.10;;;23.60;44.20;;;;;;5040154;28;88692;-65
2022/04/13 00:11:25;;;;;;;3.20;1.43;;;23.60;44.20;;;;;;5039981;27;91969;-65
2022/04/13 00:13:53;;;;;;;2.47;1.30;;;23.60;44.70;;;;;;5039364;27;88968;-65
2022/04/13 00:16:21;;;;;;;4.07;1.30;;;23.60;44.10;;;;;;5040483;27;90517;-65
2022/04/13 00:18:49;;;;;;;2.70;1.43;;;23.60;44.10;;;;;;5040539;27;88539;-65
2022/04/13 00:21:17;;;;;;;2.67;1.53;;;23.60;44.10;;;;;;5040144;28;90744;-65
2022/04/13 00:23:45;;;;;;;4.13;1.20;;;23.60;44.20;;;;;;5039678;28;90027;-65
2022/04/13 00:26:12;;;;;;;1.43;1.13;;;23.60;44.20;;;;;;5039999;27;88284;-65
2022/04/13 00:28:42;;;;;;;2.47;1.63;;;23.60;44.10;;;;;;5037601;28;88465;-65
2022/04/13 00:31:10;;;;;;;1.50;1.30;;;23.60;44.10;;;;;;5035844;27;91382;-65
2022/04/13 00:33:38;;;;;;;3.03;1.47;;;23.60;44.10;;;;;;5036508;28;90252;-65
2022/04/13 00:36:06;;;;;;;3.37;1.53;;;23.60;44.10;;;;;;5038400;28;88493;-65
2022/04/13 00:38:34;;;;;;;2.00;1.53;;;23.60;44.10;;;;;;5037910;27;88632;-65
2022/04/13 00:41:02;;;;;;;2.73;1.87;;;23.60;44.20;;;;;;5038167;28;93451;-65
2022/04/13 00:43:30;;;;;;;3.13;1.97;;;23.60;44.20;;;;;;5038711;28;90119;-65
2022/04/13 00:45:59;;;;;;;3.57;1.70;;;23.60;44.20;;;;;;5039345;27;89602;-65
2022/04/13 00:48:29;;;;;;;3.33;2.23;;;23.60;44.20;;;;;;5039974;27;88422;-65
2022/04/13 00:50:57;;;;;;;2.33;1.53;;;23.60;44.20;;;;;;5038716;28;90770;-65
2022/04/13 00:53:25;;;;;;;2.73;1.83;;;23.60;44.20;;;;;;5036806;28;90321;-65
2022/04/13 00:55:55;;;;;;;2.67;1.57;;;23.60;44.20;;;;;;5039873;28;89744;-65
2022/04/13 00:58:24;;;;;;;2.17;1.77;;;23.60;44.20;;;;;;5040415;27;88617;-65
2022/04/13 01:00:52;;;;;;;3.27;1.63;;;23.60;44.20;;;;;;5040041;28;90686;-65
2022/04/13 01:03:22;;;;;;;3.70;1.70;;;23.60;44.20;;;;;;5039148;28;90068;-65
2022/04/13 01:05:50;;;;;;;2.70;1.63;;;23.60;44.20;;;;;;5039386;27;88411;-65
2022/04/13 01:08:18;;;;;;;3.37;1.33;;;23.60;44.10;;;;;;5039501;27;88601;-64
2022/04/13 01:10:47;;;;;;;2.90;1.77;;;23.60;44.10;;;;;;5039973;28;91127;-65
2022/04/13 01:13:15;;;;;;;3.83;1.70;;;23.60;44.20;;;;;;5033667;28;93352;-65
2022/04/13 01:15:43;;;;;;;1.73;1.40;;;23.60;44.10;;;;;;5051439;27;90828;-65
2022/04/13 01:18:13;;;;;;;2.47;1.50;;;23.60;44.10;;;;;;5019917;28;88527;-65
2022/04/13 01:20:52;;;;;;;2.03;1.30;;;23.60;44.10;;;;;;5039521;28;93719;-65
2022/04/13 01:23:22;;;;;;;1.40;1.30;;;23.60;44.10;;;;;;5037028;28;90274;-65
2022/04/13 01:25:50;;;;;;;2.53;1.80;;;23.60;44.10;;;;;;5040006;28;88474;-65
2022/04/13 01:28:18;;;;;;;2.23;1.30;;;23.60;44.10;;;;;;5039892;28;88772;-65
2022/04/13 01:30:46;;;;;;;2.07;1.40;;;23.60;44.10;;;;;;5038522;27;90756;-65
2022/04/13 01:33:14;;;;;;;1.90;1.63;;;23.60;44.20;;;;;;5039322;28;89320;-65
2022/04/13 01:35:42;;;;;;;2.90;1.57;;;23.60;44.10;;;;;;5039627;28;88422;-64
2022/04/13 01:38:10;;;;;;;1.93;1.03;;;23.60;44.10;;;;;;5039748;28;88405;-65
2022/04/13 01:40:39;;;;;;;1.63;1.20;;;23.60;44.10;;;;;;5039712;28;90086;-65
2022/04/13 01:43:07;;;;;;;1.87;1.60;;;23.60;44.10;;;;;;5038573;27;90176;-64
2022/04/13 01:45:36;;;;;;;1.37;1.27;;;23.60;44.20;;;;;;5039339;28;89769;-64
2022/04/13 01:48:04;;;;;;;2.27;1.10;;;23.60;44.20;;;;;;5056462;27;88418;-65
2022/04/13 01:50:32;;;;;;;1.27;1.17;;;23.60;44.20;;;;;;5057155;27;92971;-65
2022/04/13 01:53:00;;;;;;;1.57;1.27;;;23.60;44.20;;;;;;5040101;28;89630;-65
2022/04/13 01:55:29;;;;;;;1.80;1.20;;;23.60;44.20;;;;;;5039026;28;88831;-65
2022/04/13 01:57:58;;;;;;;1.00;0.90;;;23.60;44.20;;;;;;5039496;27;89207;-65
2022/04/13 02:00:26;;;;;;;1.40;1.10;;;23.60;44.20;;;;;;5039737;28;93136;-65
2022/04/13 02:02:54;;;;;;;1.37;1.27;;;23.60;44.20;;;;;;5034645;28;90367;-65
2022/04/13 02:05:23;;;;;;;1.23;1.03;;;23.50;44.20;;;;;;5019543;28;88357;-65
2022/04/13 02:07:51;;;;;;;1.30;1.00;;;23.60;44.20;;;;;;5027361;28;88539;-65
2022/04/13 02:10:19;;;;;;;3.77;1.37;;;23.60;44.20;;;;;;5040524;27;88999;-65
2022/04/13 02:12:48;;;;;;;1.50;1.40;;;23.60;44.20;;;;;;5057953;27;90467;-65
2022/04/13 02:15:17;;;;;;;1.87;1.40;;;23.60;44.20;;;;;;5039133;28;90061;-65
2022/04/13 02:17:45;;;;;;;2.20;1.20;;;23.50;44.20;;;;;;5040182;28;88367;-65
2022/04/13 02:20:14;;;;;;;2.00;1.27;;;23.50;44.20;;;;;;5038617;28;90357;-65
2022/04/13 02:22:44;;;;;;;1.27;1.17;;;23.50;44.20;;;;;;5038864;28;89778;-66
2022/04/13 02:25:14;;;;;;;1.20;1.10;;;23.50;44.20;;;;;;5035707;28;91331;-65
2022/04/13 02:27:42;;;;;;;2.53;1.23;;;23.60;44.90;;;;;;5039074;28;88541;-65
2022/04/13 02:30:11;;;;;;;1.43;1.00;;;23.50;44.20;;;;;;5037977;28;90793;-65
2022/04/13 02:32:43;;;;;;;1.67;1.37;;;23.50;44.20;;;;;;5038396;28;90193;-65
2022/04/13 02:35:11;;;;;;;1.53;1.20;;;23.50;44.20;;;;;;5041432;27;88582;-65
2022/04/13 02:37:40;;;;;;;1.83;1.10;;;23.50;44.20;;;;;;5042870;27;88602;-65
2022/04/13 02:40:09;;;;;;;1.87;1.47;;;23.50;44.20;;;;;;5040886;28;90713;-65
2022/04/13 02:42:37;;;;;;;3.97;1.50;;;23.50;44.20;;;;;;5042870;28;89442;-65
2022/04/13 02:45:09;;;;;;;0.77;0.77;;;23.50;44.20;;;;;;5042286;28;90597;-65
2022/04/13 02:47:37;;;;;;;2.03;1.50;;;23.50;44.20;;;;;;5043132;28;88532;-65
2022/04/13 02:50:08;;;;;;;2.33;1.30;;;23.50;44.20;;;;;;5042743;28;90562;-65
2022/04/13 02:52:36;;;;;;;2.27;1.23;;;23.50;44.20;;;;;;5042244;28;88418;-65
2022/04/13 02:55:04;;;;;;;1.93;1.43;;;23.50;44.20;;;;;;5041759;28;88857;-65
2022/04/13 02:57:32;;;;;;;2.30;0.80;;;23.50;44.20;;;;;;5041854;28;88565;-65
2022/04/13 03:00:01;;;;;;;1.37;1.20;;;23.50;44.20;;;;;;5039972;27;93177;-65
2022/04/13 03:02:29;;;;;;;2.10;1.20;;;23.50;44.20;;;;;;5038094;27;89083;-65
2022/04/13 03:04:58;;;;;;;2.17;1.20;;;23.50;44.20;;;;;;5041324;27;88420;-65
2022/04/13 03:07:29;;;;;;;1.70;1.10;;;23.50;44.20;;;;;;5041648;28;88529;-65
2022/04/13 03:09:58;;;;;;;3.23;1.27;;;23.50;44.20;;;;;;5021973;28;90002;-65
2022/04/13 03:12:26;;;;;;;0.90;0.90;;;23.50;44.30;;;;;;5021545;28;92627;-65
2022/04/13 03:14:54;;;;;;;1.43;1.10;;;23.50;44.20;;;;;;5040732;28;89067;-65
2022/04/13 03:17:23;;;;;;;3.90;1.37;;;23.50;44.30;;;;;;5042039;28;88423;-65
2022/04/13 03:19:51;;;;;;;1.33;0.80;;;23.50;44.20;;;;;;5042242;28;89021;-65
2022/04/13 03:22:19;;;;;;;3.10;1.10;;;23.50;44.30;;;;;;5041812;28;89381;-65
2022/04/13 03:24:48;;;;;;;1.57;1.13;;;23.50;44.30;;;;;;5041796;27;89994;-65
2022/04/13 03:27:16;;;;;;;1.67;1.40;;;23.40;44.20;;;;;;5041190;27;88528;-65
2022/04/13 03:29:44;;;;;;;1.20;0.80;;;23.50;44.30;;;;;;5041245;28;90656;-65
2022/04/13 03:32:12;;;;;;;0.80;0.80;;;23.40;44.20;;;;;;5039744;28;89960;-65
2022/04/13 03:34:40;;;;;;;2.50;1.10;;;23.40;44.20;;;;;;5038870;28;90645;-65
2022/04/13 03:37:08;;;;;;;1.90;0.90;;;23.50;44.30;;;;;;5041568;28;88580;-64
2022/04/13 03:39:36;;;;;;;2.97;1.37;;;23.50;44.30;;;;;;5041513;28;90797;-65
2022/04/13 03:42:07;;;;;;;1.13;0.90;;;23.40;44.10;;;;;;5041395;27;90296;-65
2022/04/13 03:44:35;;;;;;;3.17;1.53;;;23.40;44.10;;;;;;5041015;27;89664;-65
2022/04/13 03:47:03;;;;;;;1.70;1.20;;;23.50;44.20;;;;;;5041052;27;88577;-65
2022/04/13 03:49:32;;;;;;;1.40;1.10;;;23.40;44.10;;;;;;5041702;28;90649;-65
2022/04/13 03:52:00;;;;;;;1.63;1.53;;;23.50;44.20;;;;;;5041140;28;89175;-65
2022/04/13 03:54:28;;;;;;;1.77;1.30;;;23.40;44.20;;;;;;5041026;28;90614;-65
2022/04/13 03:56:56;;;;;;;2.30;1.40;;;23.50;44.30;;;;;;5041493;27;88411;-65
2022/04/13 03:59:26;;;;;;;2.23;1.17;;;23.40;44.20;;;;;;5040915;28;90606;-64
2022/04/13 04:01:54;;;;;;;2.87;1.27;;;23.40;44.20;;;;;;5040542;27;90122;-65
2022/04/13 04:04:23;;;;;;;2.20;1.17;;;23.40;44.20;;;;;;5040461;27;88604;-65
2022/04/13 04:06:51;;;;;;;1.90;1.30;;;23.40;44.20;;;;;;5040669;28;88363;-65
2022/04/13 04:09:19;;;;;;;1.63;1.10;;;23.40;44.20;;;;;;5041526;27;92635;-65
2022/04/13 04:11:47;;;;;;;1.63;1.27;;;23.40;44.20;;;;;;5040662;27;89346;-65
2022/04/13 04:14:15;;;;;;;1.73;1.40;;;23.40;44.30;;;;;;5039203;28;89364;-65
2022/04/13 04:16:45;;;;;;;2.13;1.37;;;23.40;44.30;;;;;;5040826;28;88738;-65
2022/04/13 04:19:13;;;;;;;1.90;1.03;;;23.40;44.20;;;;;;5040381;27;90931;-65
2022/04/13 04:21:41;;;;;;;2.27;0.90;;;23.40;44.30;;;;;;5040960;28;92203;-65
2022/04/13 04:24:09;;;;;;;1.83;1.10;;;23.40;44.30;;;;;;5039752;28;89783;-65
2022/04/13 04:26:37;;;;;;;2.10;1.03;;;23.30;44.20;;;;;;5047128;27;88618;-65
2022/04/13 04:29:06;;;;;;;1.77;1.37;;;23.30;44.20;;;;;;5043365;27;90274;-64
2022/04/13 04:31:53;;;;;;;1.07;0.83;;;23.30;44.20;;;;;;5039577;27;90322;-65
2022/04/13 04:34:23;;;;;;;1.00;0.90;;;23.30;44.20;;;;;;5028689;28;88980;-65
2022/04/13 04:36:51;;;;;;;1.60;1.23;;;23.30;44.20;;;;;;5040487;27;89463;-65
2022/04/13 04:39:19;;;;;;;3.50;1.00;;;23.30;44.20;;;;;;5040817;28;89324;-65
2022/04/13 04:41:48;;;;;;;1.23;1.00;;;23.30;44.30;;;;;;5040440;28;89126;-65
2022/04/13 04:44:16;;;;;;;2.00;1.10;;;23.30;44.30;;;;;;5040086;28;88977;-65
2022/04/13 04:46:44;;;;;;;1.33;1.07;;;23.30;44.20;;;;;;5040254;27;88612;-66
2022/04/13 04:49:12;;;;;;;1.63;1.10;;;23.30;44.20;;;;;;5039966;27;89845;-65
2022/04/13 04:51:41;;;;;;;2.60;1.27;;;23.30;44.20;;;;;;5042028;27;89658;-65
2022/04/13 04:54:09;;;;;;;1.70;1.00;;;23.30;44.30;;;;;;5039920;28;91627;-65
2022/04/13 04:56:37;;;;;;;5.23;1.33;;;23.30;44.20;;;;;;5045065;27;88514;-65
2022/04/13 04:59:05;;;;;;;1.00;0.90;;;23.30;44.20;;;;;;5043761;27;90724;-65
2022/04/13 05:01:33;;;;;;;1.60;1.07;;;23.30;44.20;;;;;;5041543;27;90377;-64
2022/04/13 05:04:01;;;;;;;1.87;0.80;;;23.30;44.20;;;;;;5039531;28;89867;-65
2022/04/13 05:06:29;;;;;;;0.67;0.53;;;23.40;44.30;;;;;;5033443;27;88659;-65
2022/04/13 05:08:59;;;;;;;1.07;0.90;;;23.30;44.20;;;;;;5038861;27;91081;-64
2022/04/13 05:11:26;;;;;;;4.90;1.37;;;23.30;44.20;;;;;;5036837;27;91626;-65
2022/04/13 05:13:54;;;;;;;1.23;0.90;;;23.30;44.20;;;;;;5035750;27;88634;-65
2022/04/13 05:16:22;;;;;;;1.60;1.10;;;23.30;44.20;;;;;;5040505;27;88589;-65
2022/04/13 05:18:50;;;;;;;1.20;1.10;;;23.30;44.20;;;;;;5041532;27;89012;-65
2022/04/13 05:21:19;;;;;;;1.33;0.93;;;23.30;44.20;;;;;;5041347;27;89431;-65
2022/04/13 05:23:53;;;;;;;2.00;1.03;;;23.30;44.20;;;;;;5052426;27;88828;-64
2022/04/13 05:26:22;;;;;;;3.40;1.00;;;23.30;44.20;;;;;;5038949;27;88557;-65
2022/04/13 05:28:50;;;;;;;1.10;1.00;;;23.30;44.30;;;;;;5037423;27;90014;-65
2022/04/13 05:31:18;;;;;;;3.70;1.43;;;23.30;44.30;;;;;;5038557;28;89540;-65
2022/04/13 05:33:46;;;;;;;1.67;1.10;;;23.30;44.20;;;;;;5038576;27;88850;-65
2022/04/13 05:36:15;;;;;;;1.80;0.83;;;23.30;44.20;;;;;;5040150;28;88485;-65
2022/04/13 05:38:43;;;;;;;1.37;0.77;;;23.30;44.20;;;;;;5038353;27;89575;-65
2022/04/13 05:41:11;;;;;;;2.03;1.00;;;23.40;44.20;;;;;;5040228;28;88855;-65
2022/04/13 05:43:40;;;;;;;2.50;1.00;;;23.40;44.20;;;;;;5039038;28;88529;-64
2022/04/13 05:46:08;;;;;;;2.13;1.00;;;23.40;44.20;;;;;;5040421;27;88402;-65
2022/04/13 05:48:36;;;;;;;3.03;1.20;;;23.40;44.20;;;;;;5039595;27;90257;-65
2022/04/13 05:51:04;;;;;;;2.00;0.70;;;23.40;44.20;;;;;;5038015;27;89079;-65
2022/04/13 05:53:32;;;;;;;1.70;1.00;;;23.40;44.10;;;;;;5039106;28;89144;-64
2022/04/13 05:56:00;;;;;;;1.10;0.93;;;23.40;44.10;;;;;;5039597;28;88293;-65
2022/04/13 05:58:28;;;;;;;1.10;1.00;;;23.40;44.10;;;;;;5037944;27;90640;-65
2022/04/13 06:00:58;;;;;;;3.77;1.10;;;23.40;44.10;;;;;;5054812;27;90466;-65
2022/04/13 06:03:26;;;;;;;2.37;1.10;;;23.40;44.10;;;;;;5040583;27;90414;-65
2022/04/13 06:06:09;;;;;;;1.37;1.00;;;23.40;44.10;;;;;;5044609;27;88297;-65
2022/04/13 06:08:37;;;;;;;1.70;1.00;;;23.40;44.10;;;;;;5039664;27;90640;-65
2022/04/13 06:11:05;;;;;;;1.70;0.90;;;23.40;44.10;;;;;;5042794;27;90148;-65
2022/04/13 06:13:33;;;;;;;1.23;1.13;;;23.40;44.10;;;;;;5043782;27;88256;-65
2022/04/13 06:16:03;;;;;;;2.50;0.80;;;23.40;44.10;;;;;;5040931;27;88683;-65
2022/04/13 06:18:31;;;;;;;1.97;1.07;;;23.40;44.10;;;;;;5042359;27;89488;-65
2022/04/13 06:20:59;;;;;;;1.27;0.90;;;23.40;44.10;;;;;;5040318;27;90099;-65
2022/04/13 06:23:27;;;;;;;1.33;0.83;;;23.40;44.10;;;;;;5045162;27;91408;-64
2022/04/13 06:25:55;;;;;;;1.33;0.77;;;23.40;44.10;;;;;;5042219;28;88592;-64
2022/04/13 06:28:23;;;;;;;3.37;1.20;;;23.10;44.50;;;;;;5044162;27;90238;-65
2022/04/13 06:30:51;;;;;;;2.43;1.10;;;23.40;44.10;;;;;;5041502;27;89089;-65
2022/04/13 06:33:21;;;;;;;1.37;1.27;;;23.40;44.10;;;;;;5040967;27;88490;-65
2022/04/13 06:35:49;;;;;;;3.00;1.50;;;23.40;44.10;;;;;;5039094;27;89235;-65
2022/04/13 06:38:17;;;;;;;5.60;0.90;;;23.40;44.10;;;;;;5040362;28;90861;-65
2022/04/13 06:40:45;;;;;;;4.43;0.90;;;23.40;44.10;;;;;;5041343;28;90435;-65
2022/04/13 06:43:13;;;;;;;1.00;0.93;;;23.40;44.10;;;;;;5041327;27;89886;-65
2022/04/13 06:45:41;;;;;;;0.80;0.80;;;23.40;44.90;;;;;;5043041;27;88554;-64
2022/04/13 06:48:09;;;;;;;1.00;0.90;;;23.40;44.30;;;;;;5038467;27;89721;-65
2022/04/13 06:50:39;;;;;;;1.33;1.20;;;23.10;44.20;;;;;;5041711;28;90454;-65
2022/04/13 06:53:07;;;;;;;1.23;1.07;;;23.40;44.50;;;;;;5042797;27;88883;-65
2022/04/13 06:55:37;;;;;;;1.27;0.93;;;23.50;44.60;;;;;;5062042;27;88570;-66
2022/04/13 06:58:05;;;;;;;1.23;1.03;;;23.50;44.70;;;;;;5059799;27;90623;-67
2022/04/13 07:00:34;;;;;;;1.90;1.10;;;23.50;44.80;;;;;;5040898;28;91994;-67
2022/04/13 07:03:02;;;;;;;1.40;0.93;;;23.50;45.00;;;;;;5041681;28;88717;-67
2022/04/13 07:05:40;;;;;;;2.93;1.07;;;23.50;45.10;;;;;;5041104;27;88680;-66
2022/04/13 07:08:08;;;;;;;1.47;0.90;;;23.50;45.30;;;;;;5040823;27;91706;-67
2022/04/13 07:10:36;;;;;;;1.43;1.17;;;23.50;45.40;;;;;;5040121;27;90530;-67
2022/04/13 07:13:11;;;;;;;3.00;0.90;;;23.50;45.50;;;;;;5041879;27;90101;-67
2022/04/13 07:15:39;;;;;;;1.27;1.00;;;23.50;45.60;;;;;;5057742;27;88336;-67
2022/04/13 07:18:08;;;;;;;1.57;1.20;;;23.60;45.80;;;;;;5060151;27;89308;-67
2022/04/13 07:20:36;;;;;;;1.10;1.00;;;23.50;45.80;;;;;;5037309;27;88958;-66
2022/04/13 07:23:05;;;;;;;2.07;1.13;;;23.50;46.00;;;;;;5042551;28;88815;-67
2022/04/13 07:25:34;;;;;;;4.03;1.23;;;23.60;46.20;;;;;;5042159;28;88232;-67
2022/04/13 07:28:02;;;;;;;1.57;1.10;;;23.60;46.40;;;;;;5041959;27;90819;-67
2022/04/13 07:30:31;;;;;;;3.20;1.07;;;23.60;46.50;;;;;;5040806;28;90002;-68
2022/04/13 07:33:01;;;;;;;7.30;1.63;;;23.60;46.60;;;;;;5039480;27;90165;-67
2022/04/13 07:35:30;;;;;;;2.70;1.00;;;23.60;46.60;;;;;;5041064;27;88589;-67
2022/04/13 07:37:59;;;;;;;2.87;1.23;;;23.60;46.70;;;;;;5041858;28;90123;-70
2022/04/13 07:40:28;;;;;;;5.63;1.23;;;23.70;46.90;;;;;;5040113;27;89227;-68
2022/04/13 07:42:56;;;;;;;2.00;1.07;;;23.70;47.00;;;;;;5040975;27;88870;-68
2022/04/13 07:45:24;;;;;;;3.30;1.60;;;23.70;47.10;;;;;;5041029;27;88486;-68
2022/04/13 07:47:52;;;;;;;1.53;1.07;;;23.70;47.20;;;;;;5040472;28;89487;-67
2022/04/13 07:50:21;;;;;;;1.00;0.90;;;23.70;47.30;;;;;;5040112;28;90190;-69
2022/04/13 07:52:49;;;;;;;3.47;1.13;;;23.70;47.30;;;;;;5043120;27;88506;-68
2022/04/13 07:55:17;;;;;;;1.40;1.00;;;23.70;47.40;;;;;;5038898;27;89691;-68
2022/04/13 07:57:46;;;;;;;2.60;1.00;;;23.70;47.40;;;;;;5040299;28;93404;-68
2022/04/13 08:00:15;;;;;;;3.07;1.33;;;23.80;47.50;;;;;;5040424;27;89995;-68
2022/04/13 08:02:43;;;;;;;2.90;1.53;;;23.70;47.40;;;;;;5040186;28;90529;-68
2022/04/13 08:05:13;;;;;;;4.20;1.20;;;23.70;47.40;;;;;;5039344;28;88654;-68
2022/04/13 08:07:41;;;;;;;2.73;1.47;;;23.70;48.00;;;;;;5039654;27;90676;-68
2022/04/13 08:10:09;;;;;;;1.97;1.10;;;23.70;47.30;;;;;;5039276;28;88933;-68
2022/04/13 08:12:39;;;;;;;3.57;1.00;;;23.70;47.30;;;;;;5039325;28;88879;-67
2022/04/13 08:15:10;;;;;;;1.90;1.20;;;23.70;47.30;;;;;;5043099;27;88560;-67
2022/04/13 08:17:39;;;;;;;1.57;1.10;;;23.70;47.30;;;;;;5049898;27;90603;-67
2022/04/13 08:20:09;;;;;;;1.87;1.10;;;23.70;47.90;;;;;;5039866;28;90053;-68
2022/04/13 08:22:37;;;;;;;3.10;1.30;;;23.60;47.20;;;;;;5041395;27;89854;-68
2022/04/13 08:25:06;;;;;;;3.00;1.23;;;23.60;47.10;;;;;;5037772;27;89705;-68
2022/04/13 08:27:34;;;;;;;4.63;1.00;;;23.60;47.10;;;;;;5037932;28;89014;-68
2022/04/13 08:30:02;;;;;;;1.33;0.90;;;23.60;47.10;;;;;;5039462;28;88813;-68
2022/04/13 08:32:31;;;;;;;1.73;1.30;;;23.60;47.10;;;;;;5038856;28;88381;-68
2022/04/13 08:34:59;;;;;;;1.93;1.27;;;23.60;47.00;;;;;;5039647;28;88534;-68
2022/04/13 08:37:29;;;;;;;2.27;1.13;;;23.60;47.00;;;;;;5039606;27;90722;-68
2022/04/13 08:39:57;;;;;;;1.30;1.07;;;23.70;47.00;;;;;;5039614;28;89428;-68
2022/04/13 08:42:30;;;;;;;4.40;1.00;;;23.70;47.60;;;;;;5039557;28;90448;-67
2022/04/13 08:44:57;;;;;;;2.30;1.03;;;23.70;46.90;;;;;;5039907;28;88351;-68
2022/04/13 08:47:26;;;;;;;3.27;1.40;;;23.70;46.90;;;;;;5040011;28;93699;-68
2022/04/13 08:49:55;;;;;;;2.33;1.33;;;23.70;47.50;;;;;;5039096;27;92263;-68
2022/04/13 08:52:30;;;;;;;1.67;0.87;;;23.70;46.80;;;;;;5038274;27;88363;-68
2022/04/13 08:55:03;;;;;;;4.33;1.03;;;23.70;46.70;;;;;;5039966;28;89035;-68
2022/04/13 08:57:35;;;;;;;1.67;0.77;;;23.70;47.00;;;;;;5039708;28;92250;-68
2022/04/13 09:00:13;;;;;;;2.20;1.20;;;23.70;46.70;;;;;;5039879;28;88937;-69
2022/04/13 09:03:27;;;;;;;1.90;0.93;;;23.60;46.60;;;;;;5026862;28;88805;-68
2022/04/13 09:05:58;;;;;;;4.07;0.93;;;23.60;46.60;;;;;;4977284;28;88968;-67
2022/04/13 09:08:28;;;;;;;4.37;1.30;;;23.60;46.60;;;;;;4977535;28;90295;-68
2022/04/13 09:10:57;;;;;;;1.17;0.83;;;23.60;46.60;;;;;;5007310;27;90352;-69
2022/04/13 09:13:25;;;;;;;11.00;1.10;;;23.60;46.60;;;;;;5039274;28;88568;-68
2022/04/13 09:15:53;;;;;;;0.93;0.87;;;23.60;46.50;;;;;;5040219;28;88275;-68
2022/04/13 09:18:22;;;;;;;2.70;1.30;;;23.60;46.50;;;;;;5040066;27;90578;-68
2022/04/13 09:20:50;;;;;;;1.00;0.90;;;23.60;46.50;;;;;;5039961;28;88564;-68
2022/04/13 09:23:19;;;;;;;0.90;0.70;;;23.60;46.40;;;;;;5039303;27;88855;-68
2022/04/13 09:25:47;;;;;;;1.57;0.80;;;23.60;46.40;;;;;;5039091;27;88309;-68
2022/04/13 09:28:15;;;;;;;3.33;1.00;;;23.60;46.40;;;;;;5038812;28;90703;-67
2022/04/13 09:30:43;;;;;;;1.10;1.00;;;23.60;46.40;;;;;;5040100;28;89905;-67
2022/04/13 09:33:11;;;;;;;2.73;0.90;;;23.60;46.40;;;;;;5038751;28;88895;-68
2022/04/13 09:35:39;;;;;;;1.27;0.93;;;23.60;46.40;;;;;;5038100;27;88517;-68
2022/04/13 09:38:08;;;;;;;2.97;1.10;;;23.60;46.40;;;;;;5039240;28;92424;-68
2022/04/13 09:40:38;;;;;;;1.77;1.03;;;23.60;46.30;;;;;;5039994;28;92965;-68
2022/04/13 09:43:10;;;;;;;2.40;1.10;;;23.60;46.30;;;;;;5038365;27;88833;-68
2022/04/13 09:45:39;;;;;;;4.03;1.30;;;23.60;46.20;;;;;;5043562;28;88460;-68
2022/04/13 09:48:11;;;;;;;2.87;0.97;;;23.60;46.20;;;;;;5043164;27;90515;-67
2022/04/13 09:50:39;;;;;;;3.40;1.00;;;23.60;46.20;;;;;;5042240;27;89967;-68
2022/04/13 09:53:09;;;;;;;3.87;0.93;;;23.60;46.20;;;;;;5041889;27;88566;-67
2022/04/13 09:55:43;;;;;;;2.20;0.90;;;23.60;46.20;;;;;;5042900;28;88568;-67
2022/04/13 09:58:12;;;;;;;1.13;1.03;;;23.60;46.10;;;;;;5041170;28;90536;-68
2022/04/13 10:00:40;;;;;;;0.87;0.77;;;23.60;46.10;;;;;;5035504;28;88866;-68
2022/04/13 10:03:10;;;;;;;1.73;0.87;;;23.60;46.10;;;;;;5040995;27;89161;-68
2022/04/13 10:05:39;;;;;;;1.27;0.87;;;23.60;46.10;;;;;;5041999;27;89581;-68
2022/04/13 10:08:08;;;;;;;2.57;1.40;;;23.60;46.10;;;;;;5041944;27;90728;-68
2022/04/13 10:10:36;;;;;;;1.03;0.70;;;23.60;46.10;;;;;;5041552;27;89151;-68
2022/04/13 10:13:05;;;;;;;0.83;0.83;;;23.60;46.20;;;;;;5041643;28;88941;-68
2022/04/13 10:15:33;;;;;;;2.53;0.93;;;23.60;46.20;;;;;;5041786;27;88496;-68
2022/04/13 10:18:05;;;;;;;1.63;0.80;;;23.60;46.30;;;;;;5042126;28;90477;-67
2022/04/13 10:20:43;;;;;;;1.83;0.90;;;23.60;46.40;;;;;;5042654;27;88426;-68
2022/04/13 10:23:11;;;;;;;1.17;0.73;;;23.50;46.40;;;;;;5041708;28;88849;-68
2022/04/13 10:25:39;;;;;;;3.07;0.90;;;23.50;46.60;;;;;;5041961;27;89993;-68
2022/04/13 10:28:12;;;;;;;3.27;1.10;;;23.60;46.60;;;;;;5041649;28;90041;-68
2022/04/13 10:30:41;;;;;;;2.67;1.00;;;23.50;46.50;;;;;;5040265;28;90361;-68
2022/04/13 10:33:09;;;;;;;1.57;0.80;;;23.50;46.60;;;;;;5055921;27;89058;-69
2022/04/13 10:35:38;;;;;;;2.63;0.70;;;23.50;46.60;;;;;;5051268;27;88454;-68
2022/04/13 10:38:06;;;;;;;3.47;0.90;;;23.50;46.70;;;;;;5041253;27;89704;-69
2022/04/13 10:40:36;;;;;;;1.43;0.80;;;23.60;47.50;;;;;;5051666;27;90102;-71
2022/04/13 10:43:05;;;;;;;117.90;27.70;;;23.60;46.90;;;;;;5044831;27;88612;-71
2022/04/13 10:45:35;;;;;;;54.57;17.07;;;23.60;47.00;;;;;;5035776;28;88619;-71
2022/04/13 10:48:05;;;;;;;53.73;13.23;;;23.70;47.10;;;;;;5040791;28;90678;-68
2022/04/13 10:50:37;;;;;;;39.83;12.40;;;23.80;47.20;;;;;;5039904;28;90433;-68
2022/04/13 10:53:12;;;;;;;41.37;11.13;;;23.80;47.20;;;;;;5040815;27;90337;-68
2022/04/13 10:55:41;;;;;;;22.77;7.70;;;23.80;47.20;;;;;;5047944;27;88445;-69
2022/04/13 10:58:13;;;;;;;38.30;10.17;;;23.90;47.20;;;;;;5040664;28;88404;-69
2022/04/13 11:00:45;;;;;;;32.47;8.73;;;23.90;47.30;;;;;;5038855;27;90387;-70
2022/04/13 11:03:13;;;;;;;23.47;7.40;;;23.90;47.30;;;;;;5047262;27;89427;-69
2022/04/13 11:05:41;;;;;;;19.03;7.20;;;23.90;47.30;;;;;;5040080;27;88678;-67
2022/04/13 11:08:17;;;;;;;29.87;9.60;;;24.00;47.60;;;;;;5038592;28;90315;-69
2022/04/13 11:10:47;;;;;;;20.67;11.10;;;24.00;47.60;;;;;;5041583;28;89996;-69
2022/04/13 11:13:15;;;;;;;28.50;13.27;;;24.10;47.60;;;;;;5040467;27;88492;-68
2022/04/13 11:15:45;;;;;;;32.27;12.50;;;24.20;47.70;;;;;;5040133;27;88654;-70
2022/04/13 11:18:16;;;;;;;24.93;12.03;;;24.20;47.70;;;;;;5040183;27;90624;-70
2022/04/13 11:21:05;;;;;;;26.93;11.83;;;24.30;47.80;;;;;;5041702;27;90153;-68
2022/04/13 11:23:47;;;;;;;18.97;10.87;;;24.30;47.80;;;;;;5039413;28;91969;-69
2022/04/13 11:26:16;;;;;;;19.13;9.13;;;24.30;47.60;;;;;;5038262;28;88630;-69
2022/04/13 11:28:44;;;;;;;22.60;8.97;;;24.40;47.70;;;;;;5039575;28;90677;-69
2022/04/13 11:31:13;;;;;;;12.73;7.97;;;24.40;47.60;;;;;;5041011;27;89083;-69
2022/04/13 11:33:44;;;;;;;19.17;8.93;;;24.40;47.60;;;;;;5040267;27;88775;-69
2022/04/13 11:36:12;;;;;;;19.67;6.80;;;24.40;47.60;;;;;;5041054;27;88451;-69
2022/04/13 11:39:00;;;;;;;12.67;7.03;;;24.40;47.60;;;;;;5040885;27;89190;-68
2022/04/13 11:41:28;;;;;;;16.40;7.17;;;24.40;47.50;;;;;;5041170;28;92715;-69
2022/04/13 11:43:55;;;;;;;12.83;6.87;;;24.40;47.50;;;;;;5041452;28;89905;-68
2022/04/13 11:46:39;;;;;;;12.90;6.13;;;24.40;47.50;;;;;;5042576;27;88575;-69
2022/04/13 11:49:09;;;;;;;12.73;5.60;;;24.40;47.50;;;;;;5042203;27;91807;-69
2022/04/13 11:51:37;;;;;;;14.90;5.77;;;24.40;47.50;;;;;;5039584;28;90027;-68
2022/04/13 11:54:09;;;;;;;10.50;5.50;;;24.40;47.40;;;;;;5040919;28;89115;-69
2022/04/13 11:56:38;;;;;;;9.40;4.57;;;24.40;47.50;;;;;;5021788;28;88729;-68
2022/04/13 11:59:06;;;;;;;14.60;4.80;;;24.40;47.40;;;;;;5040761;28;90769;-69
2022/04/13 12:01:35;;;;;;;9.07;4.60;;;24.50;47.50;;;;;;5041033;28;90220;-69
2022/04/13 12:04:07;;;;;;;9.47;4.50;;;24.50;47.50;;;;;;5041765;27;89018;-68
2022/04/13 12:06:36;;;;;;;10.10;3.80;;;24.50;47.40;;;;;;5041357;27;88483;-70
2022/04/13 12:09:06;;;;;;;8.50;4.20;;;24.50;47.40;;;;;;5041333;28;90751;-69
2022/04/13 12:11:41;;;;;;;7.43;3.50;;;24.50;47.40;;;;;;5039071;28;89174;-68
2022/04/13 12:14:09;;;;;;;10.17;3.90;;;24.50;47.40;;;;;;5040391;27;88367;-68
2022/04/13 12:16:39;;;;;;;6.67;3.57;;;24.50;47.30;;;;;;5040994;28;88613;-71
2022/04/13 12:19:11;;;;;;;7.37;3.20;;;24.50;47.30;;;;;;5040478;27;90619;-69
2022/04/13 12:21:40;;;;;;;7.73;4.10;;;24.50;47.30;;;;;;5040664;27;89973;-68
2022/04/13 12:24:09;;;;;;;7.50;3.20;;;24.60;47.40;;;;;;5040981;27;88959;-68
2022/04/13 12:26:37;;;;;;;5.47;2.90;;;24.50;47.30;;;;;;5039321;27;88691;-69
2022/04/13 12:29:12;;;;;;;9.00;3.83;;;24.50;47.30;;;;;;5039937;27;89500;-69
2022/04/13 12:31:47;;;;;;;4.97;2.77;;;24.60;47.50;;;;;;5039604;27;90012;-68
2022/04/13 12:34:17;;;;;;;6.07;3.33;;;24.50;47.40;;;;;;5040074;27;89599;-69
2022/04/13 12:36:50;;;;;;;13.23;2.73;;;24.50;47.40;;;;;;5040828;27;88737;-68
2022/04/13 12:39:18;;;;;;;4.10;2.60;;;24.50;47.50;;;;;;5030167;27;90599;-68
2022/04/13 12:41:46;;;;;;;8.47;2.87;;;24.50;47.50;;;;;;5019795;28;89071;-68
2022/04/13 12:44:14;;;;;;;5.23;2.77;;;24.50;47.60;;;;;;5037972;28;88647;-69
2022/04/13 12:46:43;;;;;;;5.10;2.80;;;24.50;47.60;;;;;;5039292;27;88566;-68
2022/04/13 12:49:20;;;;;;;5.57;2.43;;;24.50;47.60;;;;;;5039863;27;90330;-69
2022/04/13 12:51:49;;;;;;;3.90;2.20;;;24.50;47.60;;;;;;5040329;28;90126;-68
2022/04/13 12:54:18;;;;;;;7.93;2.83;;;24.50;47.70;;;;;;5040218;28;91831;-69
2022/04/13 12:56:47;;;;;;;5.03;2.47;;;24.50;47.70;;;;;;5040049;28;88404;-68